KHWO/HWO METAR and TAF weather

Enter ICAO airport designator
Station Type Date Time Source
KHWO METAR 2020/01/24 02:53 UTC NOAA

KHWO 240253Z AUTO 31007KT 10SM -RA FEW031 BKN055 OVC070 18/18 A3004 RMK AO2 SLP172 P0003 60007 T01830178 50004


Station Type Date Time Source
KHWO Decoded METAR 2020/01/24 02:53 UTC NOAA

HOLLYWOOD NORTH PERRY AIRPORT , FL, United States (KHWO) 26-00N 080-14W 2M
Jan 23, 2020 - 09:53 PM EST / 2020.01.24 0253 UTC
Wind: from the NW (310 degrees) at 8 MPH (7 KT):0
Visibility: 10 mile(s):0
Sky conditions: overcast
Weather: light rain
Precipitation last hour: 0.03 inches
Temperature: 64.9 F (18.3 C)
Dew Point: 64.0 F (17.8 C)
Relative Humidity: 96%
Pressure (altimeter): 30.04 in. Hg (1017 hPa)
Pressure tendency: 0.01 inches (0.4 hPa) higher than three hours ago
ob: KHWO 240253Z AUTO 31007KT 10SM -RA FEW031 BKN055 OVC070 18/18 A3004 RMK AO2 SLP172 P0003 60007 T01830178 50004
cycle: 3

Station Type Date Time Source
KHWO TAF UTC NOAA

Error!

Example: see airport list